createdAt,value
2023-04-26T00:01:27.278Z,-0.17
2023-04-26T00:03:08.645Z,-0.45
2023-04-26T00:04:50.256Z,-1.00
2023-04-26T00:06:31.715Z,-0.95
2023-04-26T00:08:12.988Z,-0.72
2023-04-26T00:09:54.269Z,-0.31
2023-04-26T00:11:35.560Z,-0.10
2023-04-26T00:13:16.843Z,0.23
2023-04-26T00:14:58.153Z,-0.13
2023-04-26T00:16:39.590Z,-0.35
2023-04-26T00:18:20.926Z,0.02
2023-04-26T00:20:02.251Z,0.49
2023-04-26T00:21:43.575Z,0.44
2023-04-26T00:23:24.877Z,0.70
2023-04-26T00:25:06.155Z,0.74
2023-04-26T00:26:47.447Z,0.55
2023-04-26T00:28:28.748Z,0.46
2023-04-26T00:30:10.076Z,0.83
2023-04-26T00:31:51.463Z,0.96
2023-04-26T00:33:32.796Z,0.78
2023-04-26T00:35:14.163Z,0.26
2023-04-26T00:36:55.493Z,-0.58
2023-04-26T00:38:36.773Z,-0.80
2023-04-26T00:40:18.078Z,-0.54
2023-04-26T00:41:59.387Z,-0.33
2023-04-26T00:43:40.654Z,0.12
2023-04-26T00:45:21.990Z,0.35
2023-04-26T00:47:03.292Z,0.09
2023-04-26T00:48:44.612Z,-0.71
2023-04-26T00:50:25.905Z,-0.66
2023-04-26T00:52:07.205Z,-0.37
2023-04-26T00:53:48.491Z,0.15
2023-04-26T00:55:29.828Z,0.20
2023-04-26T00:57:11.165Z,-0.02
2023-04-26T00:58:52.620Z,0.09
2023-04-26T01:00:34.158Z,0.01
2023-04-26T01:02:15.609Z,-0.25
2023-04-26T01:03:57.167Z,0.14
2023-04-26T01:05:38.585Z,0.30
2023-04-26T01:07:19.926Z,0.57
2023-04-26T01:09:01.220Z,0.47
2023-04-26T01:10:42.536Z,0.74
2023-04-26T01:12:23.879Z,0.51
2023-04-26T01:14:05.359Z,0.14
2023-04-26T01:15:46.639Z,0.17
2023-04-26T01:17:27.949Z,-0.53
2023-04-26T01:19:09.240Z,-1.04
2023-04-26T01:20:50.532Z,-0.57
2023-04-26T01:22:31.824Z,-1.14
2023-04-26T01:24:13.105Z,-0.92
2023-04-26T01:25:54.408Z,-0.46
2023-04-26T01:27:35.724Z,-0.37
2023-04-26T01:29:17.070Z,-0.79
2023-04-26T01:30:58.413Z,-0.69
2023-04-26T01:32:39.755Z,-0.61
2023-04-26T01:34:21.097Z,-0.24
2023-04-26T01:36:02.486Z,-0.28
2023-04-26T01:37:43.818Z,-0.46
2023-04-26T01:39:25.108Z,-0.93
2023-04-26T01:41:06.422Z,-0.93
2023-04-26T01:42:47.758Z,-1.09
2023-04-26T01:44:29.032Z,-0.38
2023-04-26T01:46:10.357Z,-0.89
2023-04-26T01:47:51.697Z,-0.48
2023-04-26T01:49:33.028Z,-0.30
2023-04-26T01:51:14.357Z,-0.08
2023-04-26T01:52:55.635Z,-0.10
2023-04-26T01:54:36.893Z,0.29
2023-04-26T01:56:18.263Z,-0.19
2023-04-26T01:57:59.619Z,-0.41
2023-04-26T01:59:40.871Z,-0.57
2023-04-26T02:01:22.160Z,-0.94
2023-04-26T02:03:03.630Z,-1.10
2023-04-26T02:04:44.982Z,-0.69
2023-04-26T02:06:26.324Z,-0.68
2023-04-26T02:08:07.604Z,-1.17
2023-04-26T02:09:48.903Z,-0.68
2023-04-26T02:11:30.205Z,-0.70
2023-04-26T02:13:11.467Z,-1.08
2023-04-26T02:14:52.758Z,-0.67
2023-04-26T02:16:34.153Z,-1.26
2023-04-26T02:18:15.488Z,-1.50
2023-04-26T02:19:56.805Z,-1.08
2023-04-26T02:21:38.109Z,-0.67
2023-04-26T02:23:19.427Z,-0.82
2023-04-26T02:25:00.744Z,-0.74
2023-04-26T02:26:42.047Z,-0.93
2023-04-26T02:28:23.370Z,-1.20
2023-04-26T02:30:04.654Z,-1.02
2023-04-26T02:31:46.035Z,-1.17
2023-04-26T02:33:27.370Z,-1.31
2023-04-26T02:35:08.698Z,-0.95
2023-04-26T02:36:50.019Z,-0.85
2023-04-26T02:38:31.273Z,-1.42
2023-04-26T02:40:12.583Z,-0.85
2023-04-26T02:41:53.887Z,-0.79
2023-04-26T02:43:35.194Z,-0.34
2023-04-26T02:45:16.475Z,-0.37
2023-04-26T02:46:57.835Z,-0.68
2023-04-26T02:48:39.191Z,-1.06
2023-04-26T02:50:20.466Z,-0.64
2023-04-26T02:52:01.741Z,-0.71
2023-04-26T02:53:43.025Z,-0.18
2023-04-26T02:55:24.331Z,-0.29
2023-04-26T02:57:05.628Z,-0.45
2023-04-26T02:58:46.930Z,-0.24
2023-04-26T03:00:28.337Z,-0.11
2023-04-26T03:02:09.658Z,0.27
2023-04-26T03:03:51.110Z,-0.20
2023-04-26T03:05:32.514Z,0.19
2023-04-26T03:07:13.817Z,0.13
2023-04-26T03:08:55.311Z,0.21
2023-04-26T03:10:36.732Z,0.21
2023-04-26T03:12:18.021Z,0.21
2023-04-26T03:13:59.305Z,0.61
2023-04-26T03:15:40.600Z,0.18
2023-04-26T03:17:21.905Z,0.22
2023-04-26T03:19:03.188Z,-0.63
2023-04-26T03:20:44.476Z,-0.93
2023-04-26T03:22:25.764Z,-0.56
2023-04-26T03:24:07.065Z,-0.62
2023-04-26T03:25:48.352Z,-0.94
2023-04-26T03:27:29.687Z,-1.02
2023-04-26T03:29:11.007Z,-0.54
2023-04-26T03:30:52.266Z,-1.28
2023-04-26T03:32:33.589Z,-0.75
2023-04-26T03:34:14.919Z,-0.07
2023-04-26T03:35:56.209Z,-0.21
2023-04-26T03:37:37.509Z,0.17
2023-04-26T03:39:18.766Z,0.04
2023-04-26T03:41:00.044Z,-0.19
2023-04-26T03:42:41.340Z,-0.45
2023-04-26T03:44:22.615Z,-1.55
2023-04-26T03:46:03.966Z,-0.88
2023-04-26T03:47:45.335Z,-0.87
2023-04-26T03:49:26.685Z,-0.54
2023-04-26T03:51:07.990Z,-0.50
2023-04-26T03:52:49.276Z,-0.68
2023-04-26T03:54:30.572Z,-1.32
2023-04-26T03:56:11.829Z,-0.66
2023-04-26T03:57:53.110Z,-0.74
2023-04-26T03:59:34.420Z,-0.35
2023-04-26T04:01:15.717Z,-0.48
2023-04-26T04:02:57.210Z,-0.53
2023-04-26T04:04:38.752Z,-1.18
2023-04-26T04:06:20.290Z,-0.70
2023-04-26T04:08:01.614Z,-0.38
2023-04-26T04:09:42.918Z,-0.33
2023-04-26T04:11:24.268Z,-0.21
2023-04-26T04:13:05.582Z,-0.33
2023-04-26T04:14:46.868Z,-0.92
2023-04-26T04:16:28.199Z,-1.07
2023-04-26T04:18:09.619Z,-1.04
2023-04-26T04:19:51.004Z,-0.68
2023-04-26T04:21:32.270Z,-0.41
2023-04-26T04:23:13.587Z,-0.15
2023-04-26T04:24:54.884Z,-0.60
2023-04-26T04:26:36.148Z,-0.63
2023-04-26T04:28:17.427Z,-0.36
2023-04-26T04:29:58.736Z,-0.65
2023-04-26T04:31:40.166Z,-0.30
2023-04-26T04:33:21.601Z,-0.58
2023-04-26T04:35:02.883Z,-1.48
2023-04-26T04:36:44.165Z,-1.69
2023-04-26T04:38:25.553Z,-1.13
2023-04-26T04:40:07.280Z,-1.13
2023-04-26T04:41:49.515Z,-0.52
2023-04-26T04:43:30.814Z,-0.18
2023-04-26T04:45:12.102Z,-0.39
2023-04-26T04:46:53.560Z,-0.99
2023-04-26T04:48:34.959Z,-0.71
2023-04-26T04:50:16.219Z,-1.07
2023-04-26T04:51:57.486Z,-1.34
2023-04-26T04:53:38.780Z,-0.82
2023-04-26T04:55:20.052Z,-0.94
2023-04-26T04:57:01.347Z,-0.90
2023-04-26T04:58:42.652Z,-1.11
2023-04-26T05:00:23.952Z,-0.31
2023-04-26T05:02:05.290Z,-0.20
2023-04-26T05:03:46.757Z,-0.57
2023-04-26T05:05:28.217Z,-0.88
2023-04-26T05:07:09.531Z,-1.02
2023-04-26T05:08:50.808Z,-1.37
2023-04-26T05:10:32.115Z,-0.63
2023-04-26T05:12:13.442Z,-0.62
2023-04-26T05:13:54.850Z,-0.69
2023-04-26T05:15:36.263Z,-0.92
2023-04-26T05:17:17.545Z,-0.52
2023-04-26T05:18:58.811Z,-0.54
2023-04-26T05:20:40.131Z,-0.07
2023-04-26T05:22:21.485Z,-0.19
2023-04-26T05:24:02.773Z,-0.41
2023-04-26T05:25:44.029Z,-0.34
2023-04-26T05:27:25.306Z,-0.31
2023-04-26T05:29:06.592Z,-0.55
2023-04-26T05:30:47.845Z,-0.02
2023-04-26T05:32:29.174Z,0.20
2023-04-26T05:34:10.471Z,0.09
2023-04-26T05:35:51.768Z,0.67
2023-04-26T05:37:33.079Z,0.62
2023-04-26T05:39:14.400Z,0.74
2023-04-26T05:40:55.720Z,0.72
2023-04-26T05:42:37.104Z,0.90
2023-04-26T05:44:18.372Z,0.94
2023-04-26T05:45:59.705Z,0.84
2023-04-26T05:47:41.062Z,0.99
2023-04-26T05:49:22.424Z,1.31
2023-04-26T05:51:03.724Z,1.61
2023-04-26T05:52:45.017Z,1.62
2023-04-26T05:54:26.911Z,1.50
2023-04-26T05:56:08.493Z,1.16
2023-04-26T05:57:49.892Z,1.10
2023-04-26T05:59:31.338Z,1.43
2023-04-26T06:01:12.642Z,1.39
2023-04-26T06:02:54.030Z,0.77
2023-04-26T06:04:35.506Z,0.59
2023-04-26T06:06:16.936Z,0.88
2023-04-26T06:07:58.207Z,1.28
2023-04-26T06:09:39.527Z,1.34
2023-04-26T06:11:20.897Z,1.24
2023-04-26T06:13:02.177Z,1.18
2023-04-26T06:14:43.521Z,1.19
2023-04-26T06:16:24.964Z,1.40
2023-04-26T06:18:06.334Z,1.62
2023-04-26T06:19:47.650Z,1.38
2023-04-26T06:21:28.956Z,1.07
2023-04-26T06:23:10.215Z,1.14
2023-04-26T06:24:51.513Z,1.37
2023-04-26T06:26:32.817Z,1.62
2023-04-26T06:28:14.075Z,1.28
2023-04-26T06:29:55.371Z,1.10
2023-04-26T06:31:36.831Z,0.88
2023-04-26T06:33:18.189Z,1.04
2023-04-26T06:34:59.497Z,0.78
2023-04-26T06:36:40.844Z,0.23
2023-04-26T06:38:22.143Z,0.00
2023-04-26T06:40:03.437Z,-0.28
2023-04-26T06:41:44.729Z,-0.03
2023-04-26T06:43:26.028Z,0.30
2023-04-26T06:45:07.349Z,0.66
2023-04-26T06:46:48.714Z,0.62
2023-04-26T06:48:30.033Z,0.69
2023-04-26T06:50:11.345Z,0.92
2023-04-26T06:51:52.631Z,0.98
2023-04-26T06:53:33.925Z,1.06
2023-04-26T06:55:15.219Z,1.30
2023-04-26T06:56:56.514Z,0.62
2023-04-26T06:58:37.807Z,-0.07
2023-04-26T07:00:19.095Z,-0.31
2023-04-26T07:02:00.480Z,-0.34
2023-04-26T07:03:42.047Z,0.05
2023-04-26T07:05:23.539Z,0.58
2023-04-26T07:07:04.898Z,0.96
2023-04-26T07:08:46.221Z,1.04
2023-04-26T07:10:27.852Z,0.99
2023-04-26T07:12:09.225Z,1.32
2023-04-26T07:13:50.682Z,0.99
2023-04-26T07:15:32.055Z,0.43
2023-04-26T07:17:13.342Z,0.10
2023-04-26T07:18:54.630Z,-0.08
2023-04-26T07:20:35.926Z,-0.03
2023-04-26T07:22:17.238Z,0.14
2023-04-26T07:23:58.523Z,0.46
2023-04-26T07:25:39.808Z,0.69
2023-04-26T07:27:21.101Z,1.13
2023-04-26T07:29:02.394Z,1.62
2023-04-26T07:30:43.705Z,2.05
2023-04-26T07:32:25.059Z,1.94
2023-04-26T07:34:06.448Z,1.93
2023-04-26T07:35:47.840Z,2.01
2023-04-26T07:37:29.178Z,2.43
2023-04-26T07:39:10.454Z,2.67
2023-04-26T07:40:51.801Z,2.83
2023-04-26T07:42:33.062Z,2.98
2023-04-26T07:44:14.328Z,2.73
2023-04-26T07:45:55.750Z,2.77
2023-04-26T07:47:37.157Z,3.11
2023-04-26T07:49:18.549Z,3.01
2023-04-26T07:50:59.859Z,3.31
2023-04-26T07:52:41.151Z,3.62
2023-04-26T07:54:22.425Z,3.59
2023-04-26T07:56:03.726Z,3.74
2023-04-26T07:57:45.002Z,3.76
2023-04-26T07:59:26.273Z,4.07
2023-04-26T08:01:07.676Z,4.39
2023-04-26T08:02:49.242Z,4.61
2023-04-26T08:04:30.811Z,5.09
2023-04-26T08:06:12.281Z,4.83
2023-04-26T08:07:53.691Z,5.14
2023-04-26T08:09:34.966Z,5.86
2023-04-26T08:11:16.309Z,6.26
2023-04-26T08:12:57.629Z,6.92
2023-04-26T08:14:38.912Z,7.40
2023-04-26T08:16:20.217Z,8.04
2023-04-26T08:18:01.664Z,7.85
2023-04-26T08:19:42.966Z,7.90
2023-04-26T08:21:24.258Z,8.07
2023-04-26T08:23:05.579Z,8.20
2023-04-26T08:24:46.876Z,8.64
2023-04-26T08:26:28.176Z,8.59
2023-04-26T08:28:09.429Z,8.91
2023-04-26T08:29:50.732Z,9.22
2023-04-26T08:31:32.196Z,9.24
2023-04-26T08:33:13.607Z,9.28
2023-04-26T08:34:54.920Z,9.17
2023-04-26T08:36:36.197Z,9.18
2023-04-26T08:38:17.483Z,9.18
2023-04-26T08:39:58.790Z,9.12
2023-04-26T08:41:40.100Z,8.91
2023-04-26T08:43:21.380Z,9.28
2023-04-26T08:45:02.746Z,9.49
2023-04-26T08:46:44.082Z,9.81
2023-04-26T08:48:25.402Z,9.70
2023-04-26T08:50:06.719Z,9.89
2023-04-26T08:51:47.982Z,9.86
2023-04-26T08:53:29.299Z,10.11
2023-04-26T08:55:10.601Z,10.12
2023-04-26T08:56:51.901Z,10.20
2023-04-26T08:58:33.210Z,10.15
2023-04-26T09:00:14.543Z,10.36
2023-04-26T09:01:55.845Z,10.39
2023-04-26T09:03:37.365Z,10.42
2023-04-26T09:05:18.808Z,10.62
2023-04-26T09:07:00.110Z,10.70
2023-04-26T09:08:41.428Z,10.74
2023-04-26T09:10:22.800Z,10.92
2023-04-26T09:12:04.228Z,11.11
2023-04-26T09:13:45.534Z,10.91
2023-04-26T09:15:26.940Z,10.73
2023-04-26T09:17:08.253Z,11.16
2023-04-26T09:18:49.572Z,11.45
2023-04-26T09:20:30.866Z,11.73
2023-04-26T09:22:12.158Z,11.68
2023-04-26T09:23:53.472Z,11.92
2023-04-26T09:25:34.809Z,11.94
2023-04-26T09:27:16.098Z,11.85
2023-04-26T09:28:57.374Z,11.78
2023-04-26T09:30:38.632Z,11.50
2023-04-26T09:32:19.929Z,11.45
2023-04-26T09:34:01.259Z,11.34
2023-04-26T09:35:42.575Z,11.59
2023-04-26T09:37:23.833Z,11.95
2023-04-26T09:39:05.137Z,12.34
2023-04-26T09:40:46.452Z,12.48
2023-04-26T09:42:27.721Z,12.13
2023-04-26T09:44:09.021Z,12.28
2023-04-26T09:45:50.593Z,12.26
2023-04-26T09:47:32.169Z,12.27
2023-04-26T09:49:13.466Z,12.71
2023-04-26T09:50:54.799Z,12.59
2023-04-26T09:52:36.152Z,12.56
2023-04-26T09:54:17.528Z,12.34
2023-04-26T09:55:58.850Z,12.51
2023-04-26T09:57:40.188Z,12.81
2023-04-26T09:59:21.517Z,12.89
2023-04-26T10:01:02.923Z,12.74
2023-04-26T10:02:44.356Z,12.74
2023-04-26T10:04:25.774Z,13.11
2023-04-26T10:06:07.134Z,13.29
2023-04-26T10:07:48.429Z,13.54
2023-04-26T10:09:29.719Z,13.48
2023-04-26T10:11:11.007Z,13.51
2023-04-26T10:12:52.307Z,13.86
2023-04-26T10:14:33.599Z,13.48
2023-04-26T10:16:14.943Z,13.49
2023-04-26T10:17:56.274Z,13.22
2023-04-26T10:19:37.585Z,13.55
2023-04-26T10:21:18.949Z,13.37
2023-04-26T10:23:00.256Z,13.43
2023-04-26T10:24:41.554Z,13.41
2023-04-26T10:26:22.891Z,13.46
2023-04-26T10:28:04.187Z,13.64
2023-04-26T10:29:45.507Z,14.01
2023-04-26T10:31:26.926Z,14.08
2023-04-26T10:33:08.293Z,14.58
2023-04-26T10:34:49.658Z,14.77
2023-04-26T10:36:31.179Z,13.83
2023-04-26T10:38:12.539Z,13.89
2023-04-26T10:39:53.861Z,14.06
2023-04-26T10:41:35.190Z,14.01
2023-04-26T10:43:16.477Z,14.27
2023-04-26T10:44:57.815Z,13.62
2023-04-26T10:46:39.329Z,13.61
2023-04-26T10:48:20.745Z,13.24
2023-04-26T10:50:03.663Z,13.53
2023-04-26T10:51:46.590Z,13.21
2023-04-26T10:53:27.877Z,13.55
2023-04-26T10:55:09.195Z,13.10
2023-04-26T10:56:51.092Z,13.59
2023-04-26T10:58:33.054Z,14.01
2023-04-26T11:00:14.771Z,14.63
2023-04-26T11:01:56.249Z,14.51
2023-04-26T11:03:38.009Z,14.14
2023-04-26T11:05:19.904Z,14.50
2023-04-26T11:07:01.306Z,14.42
2023-04-26T11:08:42.793Z,15.14
2023-04-26T11:10:24.300Z,14.91
2023-04-26T11:12:05.822Z,15.22
2023-04-26T11:13:47.238Z,15.23
2023-04-26T11:15:28.522Z,14.74
2023-04-26T11:17:09.832Z,14.65
2023-04-26T11:18:51.237Z,14.96
2023-04-26T11:20:32.742Z,14.89
2023-04-26T11:22:14.164Z,14.81
2023-04-26T11:23:55.469Z,14.74
2023-04-26T11:25:36.808Z,14.80
2023-04-26T11:27:18.180Z,14.39
2023-04-26T11:28:59.495Z,13.99
2023-04-26T11:30:40.777Z,13.92
2023-04-26T11:32:22.074Z,13.70
2023-04-26T11:34:03.376Z,14.31
2023-04-26T11:35:44.693Z,14.55
2023-04-26T11:37:26.000Z,14.03
2023-04-26T11:39:07.372Z,14.07
2023-04-26T11:40:48.661Z,13.73
2023-04-26T11:42:29.953Z,13.68
2023-04-26T11:44:11.280Z,13.34
2023-04-26T11:45:52.559Z,13.24
2023-04-26T11:47:33.855Z,12.44
2023-04-26T11:49:15.184Z,13.17
2023-04-26T11:50:56.497Z,13.32
2023-04-26T11:52:37.790Z,13.28
2023-04-26T11:54:19.072Z,13.27
2023-04-26T11:56:00.395Z,12.94
2023-04-26T11:57:41.687Z,12.52
2023-04-26T11:59:23.023Z,12.76
2023-04-26T12:01:04.327Z,12.79
2023-04-26T12:02:45.769Z,12.58
2023-04-26T12:04:29.896Z,12.64
2023-04-26T12:06:11.534Z,13.26
2023-04-26T12:07:52.835Z,13.38
2023-04-26T12:09:34.187Z,12.95
2023-04-26T12:11:15.504Z,12.85
2023-04-26T12:12:56.924Z,12.74
2023-04-26T12:14:38.323Z,12.50
2023-04-26T12:16:26.277Z,12.54
2023-04-26T12:18:08.648Z,12.78
2023-04-26T12:19:50.077Z,12.68
2023-04-26T12:21:31.364Z,12.84
2023-04-26T12:23:12.664Z,12.75
2023-04-26T12:24:53.938Z,12.31
2023-04-26T12:26:35.228Z,12.61
2023-04-26T12:28:16.581Z,12.35
2023-04-26T12:29:57.899Z,12.22
2023-04-26T12:31:39.244Z,11.62
2023-04-26T12:33:20.627Z,11.94
2023-04-26T12:35:01.964Z,11.53
2023-04-26T12:36:43.430Z,11.75
2023-04-26T12:38:24.702Z,11.85
2023-04-26T12:40:06.081Z,11.66
2023-04-26T12:41:47.427Z,12.01
2023-04-26T12:43:28.828Z,11.96
2023-04-26T12:45:10.174Z,12.02
2023-04-26T12:46:51.488Z,11.93
2023-04-26T12:48:32.789Z,11.88
2023-04-26T12:50:14.863Z,12.06
2023-04-26T12:51:57.348Z,12.05
2023-04-26T12:53:38.632Z,12.10
2023-04-26T12:55:19.912Z,11.85
2023-04-26T12:57:01.232Z,11.71
2023-04-26T12:58:42.509Z,11.96
2023-04-26T13:00:23.845Z,12.07
2023-04-26T13:02:05.153Z,12.11
2023-04-26T13:03:46.745Z,12.35
2023-04-26T13:05:28.141Z,12.52
2023-04-26T13:07:09.446Z,12.97
2023-04-26T13:08:50.754Z,12.91
2023-04-26T13:10:32.064Z,12.77
2023-04-26T13:12:13.401Z,12.73
2023-04-26T13:13:54.700Z,12.48
2023-04-26T13:15:36.027Z,12.54
2023-04-26T13:17:17.324Z,12.74
2023-04-26T13:18:58.697Z,12.41
2023-04-26T13:20:40.056Z,12.44
2023-04-26T13:22:21.358Z,12.42
2023-04-26T13:24:02.675Z,12.52
2023-04-26T13:25:43.984Z,12.67
2023-04-26T13:27:25.308Z,12.72
2023-04-26T13:29:06.630Z,12.87
2023-04-26T13:30:47.944Z,12.58
2023-04-26T13:32:29.318Z,12.77
2023-04-26T13:34:10.768Z,12.81
2023-04-26T13:35:52.169Z,12.48
2023-04-26T13:37:33.423Z,12.34
2023-04-26T13:39:14.710Z,12.49
2023-04-26T13:40:55.992Z,12.42
2023-04-26T13:42:37.257Z,12.33
2023-04-26T13:44:18.571Z,12.65
2023-04-26T13:45:59.936Z,12.75
2023-04-26T13:47:41.319Z,12.25
2023-04-26T13:49:22.620Z,12.12
2023-04-26T13:51:06.151Z,12.03
2023-04-26T13:52:48.103Z,11.73
2023-04-26T13:54:29.403Z,11.73
2023-04-26T13:56:10.704Z,11.86
2023-04-26T13:57:51.981Z,11.87
2023-04-26T13:59:33.288Z,12.10
2023-04-26T14:01:14.607Z,12.06
2023-04-26T14:02:56.124Z,11.85
2023-04-26T14:04:37.901Z,11.54
2023-04-26T14:06:19.405Z,11.71
2023-04-26T14:08:00.693Z,11.56
2023-04-26T14:09:41.987Z,11.75
2023-04-26T14:11:23.293Z,11.70
2023-04-26T14:13:04.601Z,11.95
2023-04-26T14:14:45.993Z,11.70
2023-04-26T14:16:27.464Z,11.78
2023-04-26T14:18:08.806Z,11.89
2023-04-26T14:19:50.132Z,11.89
2023-04-26T14:21:31.456Z,11.92
2023-04-26T14:23:12.772Z,11.96
2023-04-26T14:24:54.080Z,12.15
2023-04-26T14:26:35.425Z,12.12
2023-04-26T14:28:17.031Z,12.25
2023-04-26T14:29:58.509Z,12.30
2023-04-26T14:31:39.846Z,12.19
2023-04-26T14:33:22.509Z,12.29
2023-04-26T14:35:05.096Z,11.86
2023-04-26T14:36:46.429Z,12.11
2023-04-26T14:38:27.773Z,12.18
2023-04-26T14:40:09.088Z,12.15
2023-04-26T14:41:50.394Z,12.24
2023-04-26T14:43:31.676Z,11.93
2023-04-26T14:45:12.982Z,11.57
2023-04-26T14:46:54.272Z,11.63
2023-04-26T14:48:35.517Z,11.50
2023-04-26T14:50:16.821Z,11.68
2023-04-26T14:51:58.114Z,11.80
2023-04-26T14:53:39.434Z,11.60
2023-04-26T14:55:20.723Z,11.78
2023-04-26T14:57:01.992Z,11.64
2023-04-26T14:58:43.251Z,11.52
2023-04-26T15:00:24.558Z,11.38
2023-04-26T15:02:05.893Z,11.32
2023-04-26T15:03:47.300Z,11.22
2023-04-26T15:05:28.815Z,11.20
2023-04-26T15:07:20.810Z,11.17
2023-04-26T15:09:09.928Z,11.06
2023-04-26T15:10:51.232Z,10.88
2023-04-26T15:12:32.582Z,10.87
2023-04-26T15:14:13.885Z,11.03
2023-04-26T15:15:55.207Z,11.05
2023-04-26T15:17:36.539Z,10.53
2023-04-26T15:19:17.832Z,10.05
2023-04-26T15:20:59.166Z,9.99
2023-04-26T15:22:40.461Z,10.27
2023-04-26T15:24:21.781Z,10.21
2023-04-26T15:26:03.097Z,10.74
2023-04-26T15:27:44.388Z,10.72
2023-04-26T15:29:25.708Z,10.76
2023-04-26T15:31:07.042Z,10.95
2023-04-26T15:32:48.401Z,11.14
2023-04-26T15:34:29.750Z,11.26
2023-04-26T15:36:11.080Z,10.84
2023-04-26T15:37:52.370Z,10.74
2023-04-26T15:39:33.663Z,10.96
2023-04-26T15:41:14.978Z,11.14
2023-04-26T15:42:56.261Z,11.30
2023-04-26T15:44:37.599Z,11.02
2023-04-26T15:46:18.955Z,10.83
2023-04-26T15:48:00.369Z,11.00
2023-04-26T15:49:41.732Z,11.13
2023-04-26T15:51:24.226Z,11.18
2023-04-26T15:53:05.502Z,11.21
2023-04-26T15:54:46.828Z,11.38
2023-04-26T15:56:28.127Z,11.04
2023-04-26T15:58:09.448Z,11.29
2023-04-26T15:59:50.741Z,10.92
2023-04-26T16:01:32.087Z,11.00
2023-04-26T16:03:13.572Z,11.14
2023-04-26T16:04:55.178Z,11.11
2023-04-26T16:06:36.700Z,11.12
2023-04-26T16:08:27.659Z,11.00
2023-04-26T16:10:14.479Z,11.06
2023-04-26T16:11:55.864Z,11.20
2023-04-26T16:13:37.233Z,11.03
2023-04-26T16:15:18.567Z,10.73
2023-04-26T16:17:00.632Z,10.71
2023-04-26T16:18:42.285Z,10.66
2023-04-26T16:20:23.594Z,10.82
2023-04-26T16:22:04.938Z,10.79
2023-04-26T16:23:46.430Z,10.75
2023-04-26T16:25:27.967Z,10.87
2023-04-26T16:27:09.273Z,10.95
2023-04-26T16:28:50.552Z,11.20
2023-04-26T16:30:31.861Z,11.30
2023-04-26T16:32:13.178Z,11.08
2023-04-26T16:33:54.955Z,11.10
2023-04-26T16:35:36.456Z,10.95
2023-04-26T16:37:17.731Z,10.99
2023-04-26T16:38:59.304Z,11.10
2023-04-26T16:40:40.813Z,11.16
2023-04-26T16:42:22.119Z,11.28
2023-04-26T16:44:03.603Z,11.26
2023-04-26T16:45:44.946Z,10.89
2023-04-26T16:47:26.327Z,10.86
2023-04-26T16:49:08.294Z,10.81
2023-04-26T16:50:49.793Z,10.96
2023-04-26T16:52:31.155Z,10.90
2023-04-26T16:54:12.439Z,10.92
2023-04-26T16:55:54.520Z,10.60
2023-04-26T16:57:36.246Z,10.72
2023-04-26T16:59:17.687Z,10.58
2023-04-26T17:00:58.965Z,10.40
2023-04-26T17:02:40.479Z,10.42
2023-04-26T17:04:22.212Z,10.35
2023-04-26T17:06:03.578Z,10.14
2023-04-26T17:07:44.907Z,10.18
2023-04-26T17:09:26.213Z,10.31
2023-04-26T17:11:07.471Z,10.48
2023-04-26T17:12:48.763Z,10.48
2023-04-26T17:14:30.131Z,10.42
2023-04-26T17:16:11.440Z,10.36
2023-04-26T17:17:52.795Z,10.47
2023-04-26T17:19:34.189Z,10.41
2023-04-26T17:21:15.494Z,10.40
2023-04-26T17:22:56.956Z,10.40
2023-04-26T17:24:38.494Z,10.18
2023-04-26T17:26:19.864Z,9.89
2023-04-26T17:28:01.260Z,9.83
2023-04-26T17:29:42.861Z,9.74
2023-04-26T17:31:24.672Z,9.51
2023-04-26T17:33:06.089Z,9.46
2023-04-26T17:34:47.428Z,9.37
2023-04-26T17:36:28.758Z,9.38
2023-04-26T17:38:10.239Z,9.79
2023-04-26T17:39:52.259Z,9.90
2023-04-26T17:41:33.706Z,10.08
2023-04-26T17:43:15.215Z,10.14
2023-04-26T17:44:56.701Z,10.39
2023-04-26T17:46:38.012Z,10.37
2023-04-26T17:48:19.527Z,10.47
2023-04-26T17:50:01.076Z,10.48
2023-04-26T17:51:42.388Z,10.47
2023-04-26T17:53:23.730Z,10.37
2023-04-26T17:55:05.271Z,10.37
2023-04-26T17:56:46.918Z,10.26
2023-04-26T17:58:28.404Z,10.25
2023-04-26T18:00:10.061Z,10.24
2023-04-26T18:01:51.505Z,10.18
2023-04-26T18:03:32.975Z,10.19
2023-04-26T18:05:14.464Z,10.14
2023-04-26T18:06:55.843Z,10.05
2023-04-26T18:08:37.131Z,9.90
2023-04-26T18:10:18.538Z,9.83
2023-04-26T18:12:00.055Z,9.98
2023-04-26T18:13:41.615Z,10.16
2023-04-26T18:15:22.996Z,10.20
2023-04-26T18:17:04.394Z,9.77
2023-04-26T18:18:45.874Z,9.58
2023-04-26T18:20:27.279Z,9.66
2023-04-26T18:22:08.808Z,9.74
2023-04-26T18:23:50.290Z,9.88
2023-04-26T18:25:31.660Z,9.67
2023-04-26T18:27:13.720Z,9.69
2023-04-26T18:28:55.150Z,9.82
2023-04-26T18:30:36.492Z,9.98
2023-04-26T18:32:17.796Z,9.53
2023-04-26T18:33:59.377Z,9.45
2023-04-26T18:35:41.096Z,8.81
2023-04-26T18:37:22.674Z,8.63
2023-04-26T18:39:04.362Z,8.98
2023-04-26T18:40:46.075Z,9.04
2023-04-26T18:42:27.460Z,9.05
2023-04-26T18:44:09.053Z,9.08
2023-04-26T18:45:50.460Z,8.93
2023-04-26T18:47:31.820Z,8.70
2023-04-26T18:49:13.153Z,8.43
2023-04-26T18:50:54.462Z,8.14
2023-04-26T18:52:35.813Z,8.03
2023-04-26T18:54:17.870Z,8.22
2023-04-26T18:55:59.440Z,8.56
2023-04-26T18:57:40.726Z,8.77
2023-04-26T18:59:22.046Z,8.85
2023-04-26T19:01:03.552Z,8.13
2023-04-26T19:02:44.958Z,7.73
2023-04-26T19:04:26.778Z,8.03
2023-04-26T19:06:08.361Z,8.23
2023-04-26T19:07:49.662Z,8.28
2023-04-26T19:09:37.026Z,8.43
2023-04-26T19:11:24.679Z,8.65
2023-04-26T19:13:05.991Z,8.51
2023-04-26T19:14:47.308Z,8.12
2023-04-26T19:16:28.972Z,8.16
2023-04-26T19:18:10.612Z,8.00
2023-04-26T19:19:52.034Z,7.88
2023-04-26T19:21:33.613Z,7.78
2023-04-26T19:23:15.108Z,7.82
2023-04-26T19:24:56.675Z,7.71
2023-04-26T19:26:38.204Z,7.50
2023-04-26T19:28:19.510Z,7.81
2023-04-26T19:30:00.805Z,8.03
2023-04-26T19:31:42.154Z,8.27
2023-04-26T19:33:23.469Z,8.08
2023-04-26T19:35:04.813Z,7.31
2023-04-26T19:36:46.167Z,6.94
2023-04-26T19:38:27.465Z,6.93
2023-04-26T19:40:08.814Z,6.99
2023-04-26T19:41:50.105Z,7.02
2023-04-26T19:43:31.962Z,6.87
2023-04-26T19:45:13.569Z,6.91
2023-04-26T19:46:54.882Z,7.08
2023-04-26T19:48:36.435Z,7.21
2023-04-26T19:50:17.943Z,7.24
2023-04-26T19:51:59.235Z,7.36
2023-04-26T19:53:40.508Z,7.64
2023-04-26T19:55:22.566Z,7.74
2023-04-26T19:57:04.062Z,7.76
2023-04-26T19:58:45.362Z,7.70
2023-04-26T20:00:26.701Z,7.75
2023-04-26T20:02:08.024Z,7.33
2023-04-26T20:03:49.459Z,7.16
2023-04-26T20:05:31.104Z,7.54
2023-04-26T20:07:12.406Z,7.47
2023-04-26T20:08:53.670Z,7.71
2023-04-26T20:10:35.485Z,7.86
2023-04-26T20:12:17.070Z,8.12
2023-04-26T20:13:58.548Z,8.06
2023-04-26T20:15:40.139Z,7.95
2023-04-26T20:17:21.504Z,7.47
2023-04-26T20:19:02.951Z,7.03
2023-04-26T20:20:44.420Z,6.99
2023-04-26T20:22:25.878Z,7.39
2023-04-26T20:24:07.183Z,7.67
2023-04-26T20:25:48.488Z,7.87
2023-04-26T20:27:29.927Z,8.06
2023-04-26T20:29:11.355Z,7.70
2023-04-26T20:30:52.680Z,7.16
2023-04-26T20:32:34.061Z,6.97
2023-04-26T20:34:15.396Z,7.13
2023-04-26T20:35:56.687Z,7.16
2023-04-26T20:37:37.989Z,7.12
2023-04-26T20:39:19.292Z,7.16
2023-04-26T20:41:00.597Z,7.06
2023-04-26T20:42:41.888Z,7.17
2023-04-26T20:44:23.166Z,7.51
2023-04-26T20:46:04.474Z,7.59
2023-04-26T20:47:45.804Z,7.78
2023-04-26T20:49:27.336Z,7.91
2023-04-26T20:51:08.898Z,8.03
2023-04-26T20:52:50.504Z,7.89
2023-04-26T20:54:32.001Z,7.53
2023-04-26T20:56:13.572Z,7.12
2023-04-26T20:57:55.119Z,6.86
2023-04-26T20:59:36.613Z,6.92
2023-04-26T21:01:18.217Z,7.05
2023-04-26T21:02:59.708Z,7.16
2023-04-26T21:04:44.678Z,7.51
2023-04-26T21:06:26.830Z,7.23
2023-04-26T21:08:08.420Z,6.86
2023-04-26T21:09:49.813Z,6.60
2023-04-26T21:11:31.134Z,6.55
2023-04-26T21:13:12.450Z,6.32
2023-04-26T21:14:53.759Z,6.10
2023-04-26T21:16:35.061Z,6.13
2023-04-26T21:18:16.998Z,6.11
2023-04-26T21:19:58.732Z,6.36
2023-04-26T21:21:40.049Z,6.61
2023-04-26T21:23:21.358Z,6.97
2023-04-26T21:25:03.141Z,7.25
2023-04-26T21:26:44.835Z,7.18
2023-04-26T21:28:26.367Z,7.09
2023-04-26T21:30:07.832Z,7.01
2023-04-26T21:31:49.170Z,6.52
2023-04-26T21:33:30.521Z,6.26
2023-04-26T21:35:11.870Z,6.19
2023-04-26T21:36:53.180Z,6.47
2023-04-26T21:38:34.496Z,6.73
2023-04-26T21:40:16.532Z,7.09
2023-04-26T21:41:58.126Z,7.33
2023-04-26T21:43:39.464Z,7.22
2023-04-26T21:45:21.033Z,6.94
2023-04-26T21:47:02.657Z,6.59
2023-04-26T21:48:44.052Z,6.80
2023-04-26T21:50:25.346Z,6.93
2023-04-26T21:52:06.633Z,7.25
2023-04-26T21:53:47.919Z,6.97
2023-04-26T21:55:29.215Z,6.91
2023-04-26T21:57:10.495Z,6.70
2023-04-26T21:58:51.767Z,6.63
2023-04-26T22:00:33.286Z,6.22
2023-04-26T22:02:14.646Z,6.17
2023-04-26T22:03:56.216Z,5.92